createdAt,value
2023-03-27T00:02:29.275Z,9.54
2023-03-27T00:04:56.845Z,9.61
2023-03-27T00:07:24.533Z,9.63
2023-03-27T00:09:53.861Z,9.56
2023-03-27T00:12:22.909Z,9.60
2023-03-27T00:14:50.620Z,9.59
2023-03-27T00:17:19.789Z,9.60
2023-03-27T00:19:47.456Z,9.57
2023-03-27T00:22:15.668Z,9.59
2023-03-27T00:24:43.974Z,9.54
2023-03-27T00:27:11.643Z,9.58
2023-03-27T00:29:41.250Z,9.58
2023-03-27T00:32:09.317Z,9.64
2023-03-27T00:34:37.511Z,9.64
2023-03-27T00:37:05.726Z,9.62
2023-03-27T00:39:34.393Z,9.64
2023-03-27T00:42:02.204Z,9.65
2023-03-27T00:44:34.200Z,9.66
2023-03-27T00:47:05.639Z,9.66
2023-03-27T00:49:36.826Z,9.64
2023-03-27T00:52:07.555Z,9.73
2023-03-27T00:54:40.248Z,9.77
2023-03-27T00:57:13.343Z,9.77
2023-03-27T00:59:44.988Z,9.79
2023-03-27T01:02:15.240Z,9.80
2023-03-27T01:04:44.511Z,9.82
2023-03-27T01:07:12.590Z,9.75
2023-03-27T01:12:39.221Z,9.85
2023-03-27T01:15:27.376Z,9.86
2023-03-27T01:18:11.065Z,9.86
2023-03-27T01:21:00.010Z,9.78
2023-03-27T01:24:11.806Z,9.82
2023-03-27T01:27:02.137Z,9.81
2023-03-27T01:29:48.474Z,9.78
2023-03-27T01:32:37.613Z,9.76
2023-03-27T01:35:46.980Z,9.75
2023-03-27T01:39:06.305Z,9.76
2023-03-27T01:41:41.998Z,9.77
2023-03-27T01:44:16.421Z,9.75
2023-03-27T01:46:51.037Z,9.76
2023-03-27T01:49:26.861Z,9.75
2023-03-27T01:51:59.580Z,9.78
2023-03-27T01:54:32.224Z,9.79
2023-03-27T01:57:04.864Z,9.79
2023-03-27T01:59:38.006Z,9.81
2023-03-27T02:02:11.400Z,9.81
2023-03-27T02:04:45.687Z,9.81
2023-03-27T02:07:19.736Z,9.80
2023-03-27T02:09:51.422Z,9.82
2023-03-27T02:12:24.501Z,9.81
2023-03-27T02:14:56.392Z,9.81
2023-03-27T02:17:27.016Z,9.81
2023-03-27T02:20:00.280Z,9.81
2023-03-27T02:22:38.013Z,9.76
2023-03-27T02:25:23.638Z,9.75
2023-03-27T02:28:03.278Z,9.74
2023-03-27T02:30:32.820Z,9.75
2023-03-27T02:33:15.634Z,9.70
2023-03-27T02:35:54.794Z,9.72
2023-03-27T02:38:28.560Z,9.71
2023-03-27T02:41:06.427Z,9.71
2023-03-27T02:43:38.903Z,9.70
2023-03-27T02:46:14.053Z,9.68
2023-03-27T02:48:46.473Z,9.67
2023-03-27T02:51:19.522Z,9.67
2023-03-27T02:53:51.728Z,9.69
2023-03-27T02:56:24.089Z,9.71
2023-03-27T02:58:58.572Z,9.71
2023-03-27T03:01:27.743Z,9.71
2023-03-27T03:04:00.000Z,9.73
2023-03-27T03:06:30.059Z,9.73
2023-03-27T03:09:03.039Z,9.69
2023-03-27T03:11:31.616Z,9.69
2023-03-27T03:14:01.095Z,9.69
2023-03-27T03:16:29.701Z,9.61
2023-03-27T03:18:57.781Z,9.65
2023-03-27T03:21:25.457Z,9.66
2023-03-27T03:23:57.520Z,9.67
2023-03-27T03:26:26.577Z,9.63
2023-03-27T03:29:01.000Z,9.65
2023-03-27T03:31:44.158Z,9.66
2023-03-27T03:34:12.665Z,9.66
2023-03-27T03:36:41.917Z,9.68
2023-03-27T03:39:11.357Z,9.61
2023-03-27T03:41:39.076Z,9.67
2023-03-27T03:44:06.839Z,9.68
2023-03-27T03:46:35.943Z,9.70
2023-03-27T03:49:04.670Z,9.70
2023-03-27T03:51:32.429Z,9.70
2023-03-27T03:54:01.281Z,9.69
2023-03-27T03:56:30.881Z,9.70
2023-03-27T03:58:59.093Z,9.69
2023-03-27T04:01:27.972Z,9.69
2023-03-27T04:03:57.043Z,9.66
2023-03-27T04:06:25.594Z,9.68
2023-03-27T04:08:53.777Z,9.68
2023-03-27T04:11:21.695Z,9.65
2023-03-27T04:13:49.604Z,9.57
2023-03-27T04:16:17.323Z,9.63
2023-03-27T04:18:45.328Z,9.60
2023-03-27T04:21:15.549Z,9.58
2023-03-27T04:23:44.817Z,9.56
2023-03-27T04:26:13.491Z,9.58
2023-03-27T04:28:41.212Z,9.60
2023-03-27T04:31:10.911Z,9.60
2023-03-27T04:33:46.272Z,9.60
2023-03-27T04:36:15.724Z,9.60
2023-03-27T04:38:43.543Z,9.57
2023-03-27T04:41:11.470Z,9.46
2023-03-27T04:43:40.250Z,9.51
2023-03-27T04:46:09.132Z,9.51
2023-03-27T04:48:38.523Z,9.48
2023-03-27T04:51:09.222Z,9.43
2023-03-27T04:53:38.846Z,9.40
2023-03-27T04:56:08.253Z,9.32
2023-03-27T04:58:37.527Z,9.38
2023-03-27T05:01:06.122Z,9.32
2023-03-27T05:03:34.681Z,9.31
2023-03-27T05:06:04.167Z,9.31
2023-03-27T05:08:32.590Z,9.28
2023-03-27T05:11:01.775Z,9.27
2023-03-27T05:13:29.548Z,9.24
2023-03-27T05:15:59.097Z,9.24
2023-03-27T05:18:27.772Z,9.27
2023-03-27T05:20:57.159Z,9.27
2023-03-27T05:23:24.967Z,9.23
2023-03-27T05:25:59.819Z,9.21
2023-03-27T05:28:30.240Z,9.14
2023-03-27T05:30:58.880Z,9.20
2023-03-27T05:33:26.864Z,9.18
2023-03-27T05:35:54.599Z,9.18
2023-03-27T05:38:24.810Z,9.20
2023-03-27T05:40:53.240Z,9.19
2023-03-27T05:43:21.294Z,9.18
2023-03-27T05:45:50.695Z,9.19
2023-03-27T05:48:18.437Z,9.10
2023-03-27T05:50:46.221Z,9.12
2023-03-27T05:53:16.014Z,9.11
2023-03-27T05:55:43.695Z,9.13
2023-03-27T05:58:13.245Z,9.00
2023-03-27T06:00:43.092Z,8.96
2023-03-27T06:03:13.777Z,9.03
2023-03-27T06:05:42.768Z,9.00
2023-03-27T06:08:11.596Z,9.02
2023-03-27T06:10:42.138Z,9.04
2023-03-27T06:13:12.429Z,9.04
2023-03-27T06:15:42.371Z,9.04
2023-03-27T06:18:12.204Z,9.04
2023-03-27T06:20:41.374Z,8.98
2023-03-27T06:23:09.401Z,8.97
2023-03-27T06:25:39.934Z,8.97
2023-03-27T06:28:09.962Z,8.96
2023-03-27T06:30:38.893Z,8.96
2023-03-27T06:33:08.593Z,8.92
2023-03-27T06:35:38.339Z,9.01
2023-03-27T06:38:06.532Z,9.05
2023-03-27T06:40:36.016Z,9.04
2023-03-27T06:43:05.713Z,9.04
2023-03-27T06:45:34.243Z,9.07
2023-03-27T06:48:12.964Z,9.09
2023-03-27T06:50:47.775Z,9.11
2023-03-27T06:53:26.588Z,9.14
2023-03-27T06:55:56.842Z,9.21
2023-03-27T06:58:25.331Z,9.25
2023-03-27T07:00:53.159Z,9.34
2023-03-27T07:03:22.707Z,9.40
2023-03-27T07:05:51.795Z,9.50
2023-03-27T07:08:24.158Z,9.60
2023-03-27T07:13:24.345Z,9.82
2023-03-27T07:15:52.125Z,9.96
2023-03-27T07:18:21.951Z,10.01
2023-03-27T07:20:51.279Z,10.16
2023-03-27T07:23:18.977Z,10.22
2023-03-27T07:25:50.388Z,10.24
2023-03-27T07:28:18.462Z,10.35
2023-03-27T07:30:47.683Z,10.42
2023-03-27T07:33:16.194Z,10.49
2023-03-27T07:35:44.641Z,10.55
2023-03-27T07:38:14.212Z,10.62
2023-03-27T07:40:43.859Z,10.71
2023-03-27T07:43:11.559Z,10.78
2023-03-27T07:45:39.350Z,10.79
2023-03-27T07:48:08.454Z,10.83
2023-03-27T07:50:37.735Z,10.82
2023-03-27T07:53:06.832Z,10.73
2023-03-27T07:55:38.332Z,10.71
2023-03-27T07:58:07.311Z,10.52
2023-03-27T08:00:36.371Z,10.37
2023-03-27T08:03:08.671Z,10.11
2023-03-27T08:05:37.190Z,10.03
2023-03-27T08:08:06.029Z,9.93
2023-03-27T08:10:34.429Z,9.85
2023-03-27T08:13:04.040Z,9.77
2023-03-27T08:15:31.879Z,9.76
2023-03-27T08:18:01.288Z,9.82
2023-03-27T08:20:30.384Z,9.86
2023-03-27T08:22:58.532Z,9.94
2023-03-27T08:25:27.930Z,10.02
2023-03-27T08:27:56.025Z,10.15
2023-03-27T08:30:25.473Z,10.27
2023-03-27T08:32:54.008Z,10.38
2023-03-27T08:35:22.183Z,10.54
2023-03-27T08:37:50.569Z,10.67
2023-03-27T08:40:26.583Z,10.84
2023-03-27T08:42:58.342Z,10.97
2023-03-27T08:45:31.781Z,11.09
2023-03-27T08:48:05.638Z,11.15
2023-03-27T08:50:39.302Z,11.20
2023-03-27T08:53:15.812Z,11.23
2023-03-27T08:55:45.890Z,11.27
2023-03-27T08:58:20.081Z,11.33
2023-03-27T09:00:56.849Z,11.36
2023-03-27T09:03:29.993Z,11.39
2023-03-27T09:06:03.427Z,11.41
2023-03-27T09:08:44.028Z,11.38
2023-03-27T09:11:28.134Z,11.29
2023-03-27T09:13:56.377Z,11.10
2023-03-27T09:16:29.931Z,11.08
2023-03-27T09:19:05.047Z,11.02
2023-03-27T09:21:41.825Z,11.00
2023-03-27T09:24:16.796Z,10.99
2023-03-27T09:26:45.443Z,10.98
2023-03-27T09:29:20.368Z,11.04
2023-03-27T09:31:51.840Z,11.09
2023-03-27T09:34:25.339Z,11.20
2023-03-27T09:36:54.909Z,11.24
2023-03-27T09:39:27.584Z,11.34
2023-03-27T09:41:59.837Z,11.38
2023-03-27T09:44:34.508Z,11.47
2023-03-27T09:47:14.470Z,11.53
2023-03-27T09:49:48.166Z,11.61
2023-03-27T09:52:35.520Z,11.62
2023-03-27T09:55:04.813Z,11.64
2023-03-27T09:57:35.014Z,11.70
2023-03-27T10:00:14.620Z,11.70
2023-03-27T10:02:43.775Z,11.78
2023-03-27T10:05:19.264Z,11.72
2023-03-27T10:07:48.551Z,11.72
2023-03-27T10:10:19.794Z,11.75
2023-03-27T10:12:54.368Z,11.73
2023-03-27T10:15:34.715Z,11.74
2023-03-27T10:18:07.396Z,11.75
2023-03-27T10:20:35.850Z,11.75
2023-03-27T10:23:08.404Z,11.81
2023-03-27T10:25:40.221Z,11.83
2023-03-27T10:28:11.829Z,11.89
2023-03-27T10:30:40.777Z,11.87
2023-03-27T10:33:10.563Z,11.82
2023-03-27T10:35:44.565Z,11.61
2023-03-27T10:38:15.428Z,11.42
2023-03-27T10:40:49.438Z,11.23
2023-03-27T10:43:26.155Z,11.05
2023-03-27T10:45:58.096Z,11.02
2023-03-27T10:48:41.095Z,10.91
2023-03-27T10:51:33.181Z,10.96
2023-03-27T10:54:16.788Z,10.93
2023-03-27T10:56:55.361Z,10.89
2023-03-27T10:59:41.139Z,10.84
2023-03-27T11:02:17.117Z,10.82
2023-03-27T11:04:53.926Z,10.76
2023-03-27T11:07:29.940Z,10.73
2023-03-27T11:10:05.559Z,10.68
2023-03-27T11:12:38.617Z,10.72
2023-03-27T11:15:13.959Z,10.74
2023-03-27T11:17:47.655Z,10.80
2023-03-27T11:20:25.788Z,10.84
2023-03-27T11:22:59.432Z,10.92
2023-03-27T11:25:36.456Z,11.06
2023-03-27T11:28:15.941Z,11.16
2023-03-27T11:30:46.991Z,11.26
2023-03-27T11:33:29.150Z,11.35
2023-03-27T11:36:06.773Z,11.40
2023-03-27T11:38:40.436Z,11.40
2023-03-27T11:41:14.684Z,11.46
2023-03-27T11:43:43.894Z,11.47
2023-03-27T11:46:24.564Z,11.48
2023-03-27T11:49:05.179Z,11.46
2023-03-27T11:51:48.438Z,11.43
2023-03-27T11:54:30.279Z,11.43
2023-03-27T11:57:00.376Z,11.43
2023-03-27T11:59:52.101Z,11.45
2023-03-27T12:02:41.421Z,11.45
2023-03-27T12:05:21.929Z,11.32
2023-03-27T12:08:00.561Z,11.41
2023-03-27T12:10:33.433Z,11.31
2023-03-27T12:13:41.342Z,11.30
2023-03-27T12:16:27.293Z,11.27
2023-03-27T12:19:17.385Z,11.16
2023-03-27T12:22:22.478Z,11.15
2023-03-27T12:25:09.652Z,11.26
2023-03-27T12:28:03.014Z,11.34
2023-03-27T12:30:41.880Z,11.48
2023-03-27T12:33:33.283Z,11.54
2023-03-27T12:36:05.718Z,11.62
2023-03-27T12:38:40.581Z,11.71
2023-03-27T12:41:22.885Z,11.77
2023-03-27T12:43:57.304Z,11.80
2023-03-27T12:46:39.053Z,11.81
2023-03-27T12:49:47.916Z,11.79
2023-03-27T12:52:19.367Z,11.81
2023-03-27T12:55:07.141Z,11.83
2023-03-27T12:57:44.202Z,11.80
2023-03-27T13:00:22.795Z,11.87
2023-03-27T13:03:19.727Z,11.96
2023-03-27T13:06:07.737Z,12.03
2023-03-27T13:08:50.339Z,12.06
2023-03-27T13:11:31.938Z,12.15
2023-03-27T13:14:28.907Z,12.26
2023-03-27T13:17:16.175Z,12.33
2023-03-27T13:19:56.414Z,12.44
2023-03-27T13:22:37.042Z,12.50
2023-03-27T13:25:26.421Z,12.51
2023-03-27T13:28:33.226Z,12.50
2023-03-27T13:31:04.463Z,12.37
2023-03-27T13:33:46.433Z,12.27
2023-03-27T13:36:17.749Z,12.03
2023-03-27T13:39:18.390Z,11.90
2023-03-27T13:42:12.792Z,11.78
2023-03-27T13:45:02.379Z,11.65
2023-03-27T13:47:54.371Z,11.62
2023-03-27T13:50:51.582Z,11.51
2023-03-27T13:53:43.896Z,11.40
2023-03-27T13:56:28.002Z,11.36
2023-03-27T13:59:28.098Z,11.31
2023-03-27T14:02:05.222Z,11.28
2023-03-27T14:04:59.431Z,11.31
2023-03-27T14:07:55.983Z,11.33
2023-03-27T14:10:38.220Z,11.39
2023-03-27T14:13:23.710Z,11.46
2023-03-27T14:16:10.358Z,11.52
2023-03-27T14:18:49.821Z,11.60
2023-03-27T14:21:35.476Z,11.70
2023-03-27T14:24:09.847Z,11.67
2023-03-27T14:26:42.338Z,11.65
2023-03-27T14:29:11.600Z,11.74
2023-03-27T14:31:44.262Z,11.70
2023-03-27T14:34:23.032Z,11.71
2023-03-27T14:36:53.147Z,11.66
2023-03-27T14:39:24.092Z,11.65
2023-03-27T14:41:55.921Z,11.64
2023-03-27T14:44:26.398Z,11.56
2023-03-27T14:47:00.422Z,11.58
2023-03-27T14:49:37.428Z,11.58
2023-03-27T14:52:09.144Z,11.60
2023-03-27T14:54:52.270Z,11.61
2023-03-27T14:57:26.110Z,11.59
2023-03-27T14:59:55.933Z,11.63
2023-03-27T15:02:30.596Z,11.68
2023-03-27T15:05:04.645Z,11.72
2023-03-27T15:07:37.840Z,11.76
2023-03-27T15:10:21.103Z,11.79
2023-03-27T15:12:49.751Z,11.72
2023-03-27T15:15:34.677Z,11.71
2023-03-27T15:18:05.494Z,11.66
2023-03-27T15:20:37.455Z,11.64
2023-03-27T15:23:19.132Z,11.63
2023-03-27T15:25:56.344Z,11.55
2023-03-27T15:28:29.697Z,11.53
2023-03-27T15:31:01.477Z,11.47
2023-03-27T15:33:34.463Z,11.41
2023-03-27T15:36:08.011Z,11.38
2023-03-27T15:38:38.534Z,11.37
2023-03-27T15:41:40.124Z,11.35
2023-03-27T15:44:12.935Z,11.32
2023-03-27T15:46:55.960Z,11.28
2023-03-27T15:49:28.013Z,11.23
2023-03-27T15:51:58.389Z,11.26
2023-03-27T15:54:34.066Z,11.29
2023-03-27T15:57:09.561Z,11.28
2023-03-27T15:59:53.067Z,11.28
2023-03-27T16:05:17.685Z,11.41
2023-03-27T16:07:49.287Z,11.37
2023-03-27T16:10:30.587Z,11.36
2023-03-27T16:13:02.935Z,11.38
2023-03-27T16:15:33.289Z,11.32
2023-03-27T16:18:04.679Z,11.35
2023-03-27T16:20:37.476Z,11.32
2023-03-27T16:23:06.743Z,11.33
2023-03-27T16:25:36.450Z,11.34
2023-03-27T16:28:04.336Z,11.33
2023-03-27T16:30:36.271Z,11.34
2023-03-27T16:33:04.821Z,11.28
2023-03-27T16:35:33.972Z,11.25
2023-03-27T16:38:02.804Z,11.22
2023-03-27T16:40:30.864Z,11.17
2023-03-27T16:43:00.593Z,11.13
2023-03-27T16:45:28.353Z,11.14
2023-03-27T16:47:56.611Z,11.14
2023-03-27T16:50:26.745Z,11.11
2023-03-27T16:52:54.926Z,10.98
2023-03-27T16:55:23.131Z,10.81
2023-03-27T16:57:52.470Z,10.78
2023-03-27T17:00:23.494Z,10.78
2023-03-27T17:02:51.683Z,10.75
2023-03-27T17:05:19.704Z,10.75
2023-03-27T17:07:48.851Z,10.73
2023-03-27T17:10:17.199Z,10.76
2023-03-27T17:12:45.530Z,10.76
2023-03-27T17:15:15.808Z,10.74
2023-03-27T17:17:45.420Z,10.78
2023-03-27T17:20:13.494Z,10.80
2023-03-27T17:22:41.806Z,10.80
2023-03-27T17:25:10.875Z,10.83
2023-03-27T17:27:39.975Z,10.81
2023-03-27T17:30:09.765Z,10.78
2023-03-27T17:32:37.999Z,10.80
2023-03-27T17:35:08.064Z,10.80
2023-03-27T17:37:37.273Z,10.78
2023-03-27T17:40:09.733Z,10.82
2023-03-27T17:42:38.465Z,10.77
2023-03-27T17:45:07.595Z,10.75
2023-03-27T17:47:35.928Z,10.70
2023-03-27T17:50:04.616Z,10.71
2023-03-27T17:52:34.683Z,10.69
2023-03-27T17:55:02.480Z,10.66
2023-03-27T17:57:31.410Z,10.63
2023-03-27T17:59:59.610Z,10.61
2023-03-27T18:02:27.656Z,10.56
2023-03-27T18:04:56.453Z,10.55
2023-03-27T18:07:25.003Z,10.51
2023-03-27T18:09:54.382Z,10.47
2023-03-27T18:12:23.094Z,10.42
2023-03-27T18:14:51.392Z,10.43
2023-03-27T18:17:21.231Z,10.43
2023-03-27T18:19:49.243Z,10.40
2023-03-27T18:22:17.630Z,10.37
2023-03-27T18:24:45.593Z,10.38
2023-03-27T18:27:17.024Z,10.40
2023-03-27T18:29:45.024Z,10.33
2023-03-27T18:32:13.161Z,10.34
2023-03-27T18:34:41.881Z,10.31
2023-03-27T18:37:09.992Z,10.28
2023-03-27T18:39:38.162Z,10.25
2023-03-27T18:42:06.834Z,10.22
2023-03-27T18:44:38.086Z,10.21
2023-03-27T18:47:06.166Z,10.19
2023-03-27T18:49:34.524Z,10.14
2023-03-27T18:52:02.489Z,10.12
2023-03-27T18:54:30.529Z,10.08
2023-03-27T18:56:59.010Z,10.04
2023-03-27T18:59:27.300Z,10.01
2023-03-27T19:01:57.024Z,9.98
2023-03-27T19:04:25.690Z,9.98
2023-03-27T19:06:53.863Z,9.97
2023-03-27T19:09:28.214Z,9.97
2023-03-27T19:12:07.471Z,9.95
2023-03-27T19:14:35.777Z,9.94
2023-03-27T19:17:06.010Z,9.90
2023-03-27T19:19:34.778Z,9.91
2023-03-27T19:22:05.998Z,9.89
2023-03-27T19:24:34.074Z,9.86
2023-03-27T19:27:02.798Z,9.85
2023-03-27T19:29:31.306Z,9.84
2023-03-27T19:31:59.617Z,9.84
2023-03-27T19:34:42.145Z,9.85
2023-03-27T19:37:11.124Z,9.87
2023-03-27T19:39:39.777Z,9.86
2023-03-27T19:42:07.763Z,9.83
2023-03-27T19:44:38.128Z,9.83
2023-03-27T19:47:07.974Z,9.83
2023-03-27T19:49:37.945Z,9.83
2023-03-27T19:52:07.274Z,9.82
2023-03-27T19:54:35.665Z,9.83
2023-03-27T19:57:03.706Z,9.82
2023-03-27T19:59:31.699Z,9.80
2023-03-27T20:02:00.787Z,9.79
2023-03-27T20:04:29.083Z,9.80
2023-03-27T20:06:59.089Z,9.80
2023-03-27T20:09:27.345Z,9.79
2023-03-27T20:11:55.257Z,9.78
2023-03-27T20:14:23.375Z,9.77
2023-03-27T20:16:52.713Z,9.75
2023-03-27T20:19:22.038Z,9.74
2023-03-27T20:21:50.517Z,9.71
2023-03-27T20:24:20.568Z,9.73
2023-03-27T20:26:52.367Z,9.71
2023-03-27T20:29:24.199Z,9.73
2023-03-27T20:31:52.259Z,9.71
2023-03-27T20:34:22.537Z,9.71
2023-03-27T20:36:53.568Z,9.71
2023-03-27T20:39:23.142Z,9.72
2023-03-27T20:41:51.325Z,9.72
2023-03-27T20:44:19.683Z,9.71
2023-03-27T20:46:52.065Z,9.70
2023-03-27T20:51:57.869Z,9.67
2023-03-27T20:54:27.711Z,9.65
2023-03-27T20:56:55.992Z,9.61
2023-03-27T20:59:24.277Z,9.57
2023-03-27T21:01:52.754Z,9.55
2023-03-27T21:04:21.728Z,9.51
2023-03-27T21:06:49.927Z,9.48
2023-03-27T21:09:18.668Z,9.44
2023-03-27T21:11:48.371Z,9.41
2023-03-27T21:14:16.460Z,9.44
2023-03-27T21:16:44.945Z,9.38
2023-03-27T21:19:13.201Z,9.31
2023-03-27T21:21:41.317Z,9.26
2023-03-27T21:24:10.350Z,9.22
2023-03-27T21:26:38.609Z,9.18
2023-03-27T21:29:11.294Z,9.17
2023-03-27T21:31:39.628Z,9.12
2023-03-27T21:34:08.425Z,9.08
2023-03-27T21:36:38.951Z,9.04
2023-03-27T21:39:08.641Z,9.00
2023-03-27T21:41:36.777Z,9.03
2023-03-27T21:44:05.610Z,8.96
2023-03-27T21:46:35.119Z,8.92
2023-03-27T21:49:03.348Z,8.86
2023-03-27T21:51:32.417Z,8.81
2023-03-27T21:54:00.559Z,8.76
2023-03-27T21:56:28.486Z,8.75
2023-03-27T21:58:58.096Z,8.71
2023-03-27T22:01:26.627Z,8.69
2023-03-27T22:04:02.483Z,8.67
2023-03-27T22:06:31.671Z,8.63
2023-03-27T22:08:59.776Z,8.60
2023-03-27T22:11:28.341Z,8.57
2023-03-27T22:13:56.330Z,8.53
2023-03-27T22:16:25.629Z,8.52
2023-03-27T22:18:55.678Z,8.48
2023-03-27T22:21:25.718Z,8.47
2023-03-27T22:23:56.193Z,8.42
2023-03-27T22:26:26.545Z,8.38
2023-03-27T22:28:54.875Z,8.34
2023-03-27T22:31:23.725Z,8.31
2023-03-27T22:33:52.280Z,8.28
2023-03-27T22:36:21.878Z,8.25
2023-03-27T22:38:50.233Z,8.22
2023-03-27T22:41:18.285Z,8.18
2023-03-27T22:43:49.251Z,8.15
2023-03-27T22:46:20.555Z,8.13
2023-03-27T22:48:48.667Z,8.09
2023-03-27T22:51:16.835Z,8.08
2023-03-27T22:53:47.216Z,8.07
2023-03-27T22:56:15.703Z,8.03
2023-03-27T22:58:43.511Z,8.02
2023-03-27T23:01:12.613Z,7.99
2023-03-27T23:03:41.051Z,7.96
2023-03-27T23:06:17.623Z,7.92
2023-03-27T23:08:48.681Z,7.92
2023-03-27T23:11:18.138Z,7.89
2023-03-27T23:13:46.605Z,7.86
2023-03-27T23:16:15.110Z,7.84
2023-03-27T23:18:43.979Z,7.81
2023-03-27T23:21:14.268Z,7.77
2023-03-27T23:23:42.423Z,7.77
2023-03-27T23:26:13.150Z,7.76
2023-03-27T23:28:43.105Z,7.73
2023-03-27T23:31:14.660Z,7.71
2023-03-27T23:33:44.709Z,7.62
2023-03-27T23:36:15.401Z,7.65
2023-03-27T23:38:43.985Z,7.63
2023-03-27T23:41:15.303Z,7.62
2023-03-27T23:43:44.318Z,7.58
2023-03-27T23:46:12.847Z,7.57
2023-03-27T23:48:43.245Z,7.55
2023-03-27T23:51:13.826Z,7.51
2023-03-27T23:53:42.047Z,7.49
2023-03-27T23:56:11.163Z,7.36
2023-03-27T23:58:41.185Z,7.46
